createdAt,value
2022-11-10T00:01:08.883Z,38.40
2022-11-10T00:03:59.547Z,39.03
2022-11-10T00:06:49.211Z,38.13
2022-11-10T00:09:38.211Z,34.80
2022-11-10T00:12:25.229Z,37.57
2022-11-10T00:15:31.121Z,38.40
2022-11-10T00:18:18.819Z,42.63
2022-11-10T00:21:09.137Z,37.57
2022-11-10T00:23:56.248Z,37.70
2022-11-10T00:26:44.543Z,39.83
2022-11-10T00:29:34.139Z,37.13
2022-11-10T00:32:20.701Z,37.80
2022-11-10T00:35:08.119Z,41.83
2022-11-10T00:37:55.282Z,37.50
2022-11-10T00:40:42.276Z,37.50
2022-11-10T00:43:31.169Z,42.53
2022-11-10T00:46:21.235Z,40.03
2022-11-10T00:49:10.275Z,39.80
2022-11-10T00:51:56.561Z,37.77
2022-11-10T00:54:43.885Z,39.20
2022-11-10T00:57:30.767Z,39.13
2022-11-10T01:00:21.451Z,40.77
2022-11-10T01:03:09.035Z,38.40
2022-11-10T01:05:56.277Z,39.33
2022-11-10T01:08:43.725Z,39.53
2022-11-10T01:11:30.873Z,40.40
2022-11-10T01:14:17.569Z,41.13
2022-11-10T01:17:06.248Z,42.73
2022-11-10T01:19:53.298Z,41.13
2022-11-10T01:22:40.687Z,40.73
2022-11-10T01:25:28.277Z,38.73
2022-11-10T01:28:15.291Z,38.43
2022-11-10T01:31:09.525Z,38.87
2022-11-10T01:34:00.245Z,42.57
2022-11-10T01:36:50.178Z,39.73
2022-11-10T01:39:37.242Z,38.33
2022-11-10T01:42:27.179Z,38.37
2022-11-10T01:45:50.418Z,39.83
2022-11-10T01:48:45.266Z,40.63
2022-11-10T01:51:41.294Z,41.33
2022-11-10T01:54:33.295Z,37.13
2022-11-10T01:57:22.312Z,41.90
2022-11-10T02:00:10.236Z,38.97
2022-11-10T02:03:03.186Z,39.27
2022-11-10T02:05:52.285Z,42.70
2022-11-10T02:08:44.739Z,38.53
2022-11-10T02:11:37.232Z,40.30
2022-11-10T02:14:25.704Z,42.07
2022-11-10T02:17:13.539Z,40.40
2022-11-10T02:20:02.186Z,39.37
2022-11-10T02:22:50.422Z,40.10
2022-11-10T02:25:36.957Z,41.20
2022-11-10T02:28:24.369Z,40.83
2022-11-10T02:34:23.639Z,40.73
2022-11-10T02:37:10.802Z,42.53
2022-11-10T02:39:59.287Z,43.00
2022-11-10T02:42:46.199Z,43.37
2022-11-10T02:45:32.628Z,38.53
2022-11-10T02:48:20.224Z,43.33
2022-11-10T02:51:07.308Z,44.07
2022-11-10T02:53:57.947Z,43.50
2022-11-10T02:56:49.329Z,38.43
2022-11-10T02:59:36.364Z,41.83
2022-11-10T03:02:25.486Z,40.73
2022-11-10T03:05:16.370Z,41.00
2022-11-10T03:08:03.985Z,40.83
2022-11-10T03:10:55.256Z,42.87
2022-11-10T03:14:01.041Z,42.57
2022-11-10T03:16:52.861Z,39.87
2022-11-10T03:19:39.547Z,38.07
2022-11-10T03:22:28.209Z,44.63
2022-11-10T03:25:15.256Z,38.33
2022-11-10T03:28:02.113Z,40.70
2022-11-10T03:30:50.317Z,42.27
2022-11-10T03:33:36.730Z,44.03
2022-11-10T03:36:23.958Z,39.77
2022-11-10T03:39:11.311Z,41.97
2022-11-10T03:41:58.230Z,39.80
2022-11-10T03:44:45.341Z,40.90
2022-11-10T03:47:39.382Z,38.30
2022-11-10T03:50:26.311Z,42.17
2022-11-10T03:53:16.366Z,43.17
2022-11-10T03:56:03.257Z,42.23
2022-11-10T03:58:50.247Z,45.27
2022-11-10T04:01:37.367Z,43.10
2022-11-10T04:04:45.616Z,44.60
2022-11-10T04:07:50.464Z,44.53
2022-11-10T04:10:38.357Z,41.70
2022-11-10T04:13:43.157Z,43.77
2022-11-10T04:16:30.350Z,44.90
2022-11-10T04:19:17.053Z,46.50
2022-11-10T04:22:08.333Z,45.30
2022-11-10T04:24:58.380Z,42.47
2022-11-10T04:27:45.247Z,42.37
2022-11-10T04:30:32.113Z,47.20
2022-11-10T04:33:19.564Z,43.60
2022-11-10T04:36:08.329Z,44.80
2022-11-10T04:38:59.512Z,44.37
2022-11-10T04:41:47.013Z,41.57
2022-11-10T04:44:35.679Z,48.93
2022-11-10T04:47:21.943Z,49.13
2022-11-10T04:50:10.357Z,46.77
2022-11-10T04:52:56.835Z,45.57
2022-11-10T04:55:47.382Z,47.17
2022-11-10T04:58:36.934Z,50.03
2022-11-10T05:01:26.418Z,48.07
2022-11-10T05:04:13.213Z,49.83
2022-11-10T05:06:59.629Z,46.77
2022-11-10T05:09:50.437Z,50.30
2022-11-10T05:12:38.297Z,52.80
2022-11-10T05:15:25.814Z,50.87
2022-11-10T05:18:12.403Z,51.03
2022-11-10T05:20:59.338Z,52.77
2022-11-10T05:23:46.662Z,53.70
2022-11-10T05:26:34.197Z,53.73
2022-11-10T05:29:21.761Z,55.87
2022-11-10T05:32:08.158Z,48.67
2022-11-10T05:34:54.640Z,52.20
2022-11-10T05:37:41.616Z,58.23
2022-11-10T05:40:32.000Z,58.90
2022-11-10T05:43:26.664Z,59.43
2022-11-10T05:46:14.470Z,54.70
2022-11-10T05:49:00.769Z,59.80
2022-11-10T05:51:47.608Z,55.40
2022-11-10T05:54:34.038Z,55.83
2022-11-10T05:57:23.325Z,55.13
2022-11-10T06:00:11.136Z,56.20
2022-11-10T06:03:01.045Z,53.33
2022-11-10T06:05:47.929Z,56.77
2022-11-10T06:08:34.576Z,57.43
2022-11-10T06:11:21.506Z,55.13
2022-11-10T06:14:15.269Z,58.33
2022-11-10T06:17:01.722Z,61.57
2022-11-10T06:19:50.446Z,58.17
2022-11-10T06:22:36.867Z,59.57
2022-11-10T06:25:23.359Z,54.40
2022-11-10T06:28:11.485Z,57.17
2022-11-10T06:30:59.407Z,59.17
2022-11-10T06:33:46.084Z,55.73
2022-11-10T06:36:33.568Z,56.97
2022-11-10T06:39:21.451Z,51.80
2022-11-10T06:42:07.726Z,53.63
2022-11-10T06:44:55.275Z,52.40
2022-11-10T06:47:42.002Z,55.43
2022-11-10T06:50:29.242Z,54.03
2022-11-10T06:53:18.448Z,52.37
2022-11-10T06:56:09.470Z,56.90
2022-11-10T06:58:59.507Z,55.57
2022-11-10T07:01:46.060Z,54.00
2022-11-10T07:04:32.976Z,48.47
2022-11-10T07:07:19.258Z,54.67
2022-11-10T07:10:08.005Z,57.20
2022-11-10T07:13:02.442Z,54.70
2022-11-10T07:15:51.590Z,52.43
2022-11-10T07:18:38.485Z,49.27
2022-11-10T07:21:25.480Z,52.47
2022-11-10T07:24:11.942Z,52.13
2022-11-10T07:27:00.267Z,54.83
2022-11-10T07:29:47.209Z,54.20
2022-11-10T07:32:34.072Z,53.10
2022-11-10T07:35:22.450Z,54.90
2022-11-10T07:38:10.956Z,50.53
2022-11-10T07:40:58.427Z,50.93
2022-11-10T07:43:47.323Z,52.60
2022-11-10T07:46:38.445Z,50.63
2022-11-10T07:49:25.464Z,52.87
2022-11-10T07:52:11.785Z,52.07
2022-11-10T07:54:58.722Z,51.00
2022-11-10T07:57:47.573Z,49.87
2022-11-10T08:00:36.452Z,47.17
2022-11-10T08:03:24.694Z,48.83
2022-11-10T08:06:11.788Z,50.30
2022-11-10T08:08:58.692Z,46.13
2022-11-10T08:11:45.358Z,47.87
2022-11-10T08:14:32.374Z,48.87
2022-11-10T08:17:20.189Z,54.80
2022-11-10T08:20:09.207Z,52.40
2022-11-10T08:22:59.838Z,47.47
2022-11-10T08:25:46.842Z,51.73
2022-11-10T08:28:35.013Z,52.77
2022-11-10T08:31:21.344Z,49.20
2022-11-10T08:34:09.873Z,49.63
2022-11-10T08:36:56.251Z,52.07
2022-11-10T08:39:43.240Z,45.33
2022-11-10T08:42:30.025Z,51.53
2022-11-10T08:45:19.493Z,49.30
2022-11-10T08:48:08.713Z,46.57
2022-11-10T08:51:00.490Z,51.27
2022-11-10T08:53:47.454Z,49.50
2022-11-10T08:56:33.740Z,52.07
2022-11-10T08:59:24.108Z,54.53
2022-11-10T09:02:12.459Z,53.93
2022-11-10T09:04:59.563Z,53.10
2022-11-10T09:07:49.364Z,56.83
2022-11-10T09:10:38.479Z,52.47
2022-11-10T09:13:29.978Z,51.53
2022-11-10T09:16:18.101Z,50.50
2022-11-10T09:19:05.474Z,49.30
2022-11-10T09:21:51.847Z,49.80
2022-11-10T09:24:40.667Z,49.07
2022-11-10T09:27:27.403Z,50.77
2022-11-10T09:30:17.938Z,52.30
2022-11-10T09:33:04.850Z,52.70
2022-11-10T09:35:57.467Z,46.50
2022-11-10T09:38:44.256Z,48.97
2022-11-10T09:41:32.489Z,49.27
2022-11-10T09:44:24.498Z,47.00
2022-11-10T09:47:18.967Z,48.27
2022-11-10T09:50:23.001Z,43.93
2022-11-10T09:53:16.409Z,46.53
2022-11-10T09:56:05.508Z,42.47
2022-11-10T09:58:54.496Z,43.33
2022-11-10T10:01:49.456Z,41.97
2022-11-10T10:04:57.684Z,38.97
2022-11-10T10:07:53.420Z,45.60
2022-11-10T10:10:44.616Z,44.47
2022-11-10T10:13:56.388Z,42.13
2022-11-10T10:16:52.512Z,45.63
2022-11-10T10:19:46.571Z,49.90
2022-11-10T10:22:49.017Z,44.93
2022-11-10T10:25:39.864Z,43.07
2022-11-10T10:28:30.603Z,43.37
2022-11-10T10:31:21.402Z,44.50
2022-11-10T10:34:14.514Z,39.13
2022-11-10T10:37:00.913Z,39.73
2022-11-10T10:39:53.012Z,52.93
2022-11-10T10:42:39.999Z,48.43
2022-11-10T10:45:29.077Z,40.53
2022-11-10T10:48:31.623Z,33.70
2022-11-10T10:51:32.519Z,34.07
2022-11-10T10:54:28.601Z,32.03
2022-11-10T10:57:23.715Z,35.27
2022-11-10T11:00:21.615Z,38.33
2022-11-10T11:03:15.564Z,32.67
2022-11-10T11:06:06.265Z,31.67
2022-11-10T11:09:03.617Z,35.23
2022-11-10T11:12:02.356Z,31.97
2022-11-10T11:14:48.911Z,32.30
2022-11-10T11:17:35.703Z,28.17
2022-11-10T11:20:30.531Z,33.00
2022-11-10T11:23:38.691Z,28.10
2022-11-10T11:26:41.456Z,26.93
2022-11-10T11:29:52.549Z,23.40
2022-11-10T11:33:05.518Z,23.80
2022-11-10T11:35:59.293Z,27.57
2022-11-10T11:38:55.271Z,26.57
2022-11-10T11:41:51.806Z,26.47
2022-11-10T11:44:59.488Z,27.03
2022-11-10T11:48:01.511Z,26.77
2022-11-10T11:50:56.084Z,29.07
2022-11-10T11:53:59.116Z,23.50
2022-11-10T11:56:50.956Z,26.40
2022-11-10T11:59:59.524Z,22.07
2022-11-10T12:02:59.546Z,25.47
2022-11-10T12:05:55.687Z,22.87
2022-11-10T12:08:53.362Z,20.80
2022-11-10T12:12:01.527Z,20.37
2022-11-10T12:14:55.204Z,23.57
2022-11-10T12:17:51.550Z,22.27
2022-11-10T12:20:49.579Z,22.87
2022-11-10T12:23:44.099Z,19.70
2022-11-10T12:26:42.343Z,21.47
2022-11-10T12:29:37.128Z,22.33
2022-11-10T12:32:27.352Z,21.30
2022-11-10T12:35:19.015Z,20.77
2022-11-10T12:38:09.343Z,20.87
2022-11-10T12:41:04.571Z,20.37
2022-11-10T12:44:04.007Z,17.63
2022-11-10T12:46:56.832Z,20.57
2022-11-10T12:49:54.100Z,19.40
2022-11-10T12:52:47.654Z,19.33
2022-11-10T12:55:39.642Z,19.07
2022-11-10T12:58:28.762Z,17.20
2022-11-10T13:01:19.516Z,15.77
2022-11-10T13:04:11.490Z,13.70
2022-11-10T13:07:01.390Z,14.87
2022-11-10T13:09:48.586Z,15.00
2022-11-10T13:12:35.575Z,15.73
2022-11-10T13:15:48.563Z,13.10
2022-11-10T13:19:01.149Z,17.00
2022-11-10T13:22:11.177Z,16.10
2022-11-10T13:25:31.697Z,15.87
2022-11-10T13:28:56.619Z,13.60
2022-11-10T13:31:54.515Z,15.17
2022-11-10T13:34:41.532Z,15.97
2022-11-10T13:37:50.793Z,17.17
2022-11-10T13:40:44.410Z,14.00
2022-11-10T13:43:31.655Z,14.47
2022-11-10T13:46:19.583Z,14.03
2022-11-10T13:49:39.505Z,14.97
2022-11-10T13:52:35.580Z,20.37
2022-11-10T13:55:42.465Z,15.53
2022-11-10T13:58:33.163Z,14.40
2022-11-10T14:01:33.015Z,11.93
2022-11-10T14:04:42.987Z,14.47
2022-11-10T14:07:32.582Z,16.73
2022-11-10T14:10:28.640Z,18.60
2022-11-10T14:13:20.042Z,16.73
2022-11-10T14:16:17.552Z,16.60
2022-11-10T14:19:19.489Z,19.50
2022-11-10T14:22:16.854Z,18.03
2022-11-10T14:25:08.633Z,15.00
2022-11-10T14:27:58.745Z,16.23
2022-11-10T14:30:54.507Z,18.53
2022-11-10T14:33:41.628Z,14.10
2022-11-10T14:36:27.891Z,14.17
2022-11-10T14:39:18.369Z,14.90
2022-11-10T14:42:06.489Z,12.63
2022-11-10T14:45:08.864Z,14.70
2022-11-10T14:47:57.602Z,14.27
2022-11-10T14:50:44.252Z,16.03
2022-11-10T14:53:38.571Z,15.07
2022-11-10T14:56:33.384Z,15.07
2022-11-10T14:59:21.710Z,13.03
2022-11-10T15:02:15.036Z,15.73
2022-11-10T15:05:02.401Z,14.33
2022-11-10T15:07:52.575Z,19.33
2022-11-10T15:10:47.824Z,28.80
2022-11-10T15:13:38.196Z,16.17
2022-11-10T15:16:27.398Z,15.50
2022-11-10T15:19:27.624Z,20.70
2022-11-10T15:22:19.639Z,15.73
2022-11-10T15:25:16.655Z,15.73
2022-11-10T15:28:18.539Z,17.83
2022-11-10T15:31:09.531Z,16.30
2022-11-10T15:33:58.185Z,15.93
2022-11-10T15:36:45.589Z,17.67
2022-11-10T15:39:32.407Z,22.03
2022-11-10T15:42:21.544Z,18.90
2022-11-10T15:45:09.697Z,19.87
2022-11-10T15:47:58.572Z,18.80
2022-11-10T15:50:50.253Z,20.40
2022-11-10T15:53:40.699Z,23.43
2022-11-10T15:56:31.470Z,22.10
2022-11-10T15:59:18.444Z,20.50
2022-11-10T16:02:10.538Z,23.57
2022-11-10T16:05:00.106Z,21.60
2022-11-10T16:07:47.686Z,21.13
2022-11-10T16:10:38.445Z,24.80
2022-11-10T16:13:27.609Z,24.27
2022-11-10T16:16:16.528Z,26.27
2022-11-10T16:19:03.803Z,21.10
2022-11-10T16:21:51.700Z,22.87
2022-11-10T16:24:40.031Z,20.07
2022-11-10T16:27:29.368Z,21.87
2022-11-10T16:30:16.687Z,21.83
2022-11-10T16:33:03.067Z,23.43
2022-11-10T16:35:51.866Z,19.70
2022-11-10T16:38:39.824Z,21.97
2022-11-10T16:41:26.774Z,22.33
2022-11-10T16:44:14.286Z,19.50
2022-11-10T16:47:00.746Z,20.40
2022-11-10T16:49:49.165Z,20.87
2022-11-10T16:52:35.650Z,23.77
2022-11-10T16:55:24.167Z,24.27
2022-11-10T16:58:10.606Z,20.93
2022-11-10T17:01:03.686Z,21.77
2022-11-10T17:03:53.585Z,22.17
2022-11-10T17:06:40.377Z,20.57
2022-11-10T17:09:27.285Z,22.50
2022-11-10T17:12:17.094Z,21.67
2022-11-10T17:15:03.676Z,20.60
2022-11-10T17:17:54.321Z,20.30
2022-11-10T17:20:43.809Z,25.17
2022-11-10T17:23:30.840Z,19.63
2022-11-10T17:26:19.181Z,21.17
2022-11-10T17:29:07.184Z,19.63
2022-11-10T17:31:54.160Z,21.93
2022-11-10T17:34:40.808Z,18.77
2022-11-10T17:37:27.698Z,17.23
2022-11-10T17:40:20.374Z,23.40
2022-11-10T17:43:07.159Z,19.47
2022-11-10T17:45:58.474Z,20.33
2022-11-10T17:48:47.009Z,19.67
2022-11-10T17:51:34.797Z,19.47
2022-11-10T17:54:22.453Z,20.60
2022-11-10T17:57:11.068Z,18.43
2022-11-10T17:59:58.249Z,19.43
2022-11-10T18:02:52.528Z,19.93
2022-11-10T18:05:41.619Z,22.70
2022-11-10T18:08:33.065Z,18.40
2022-11-10T18:11:20.207Z,24.23
2022-11-10T18:14:07.061Z,22.73
2022-11-10T18:16:53.697Z,26.10
2022-11-10T18:19:42.688Z,22.87
2022-11-10T18:22:29.290Z,22.03
2022-11-10T18:25:16.292Z,26.17
2022-11-10T18:28:02.915Z,24.43
2022-11-10T18:30:49.755Z,28.90
2022-11-10T18:33:38.117Z,25.33
2022-11-10T18:36:26.067Z,26.33
2022-11-10T18:39:12.594Z,30.77
2022-11-10T18:41:58.851Z,28.07
2022-11-10T18:44:45.278Z,27.50
2022-11-10T18:47:33.282Z,22.50
2022-11-10T18:50:20.525Z,25.37
2022-11-10T18:53:08.300Z,29.87
2022-11-10T18:55:55.683Z,29.67
2022-11-10T18:58:42.294Z,30.63
2022-11-10T19:01:30.380Z,28.00
2022-11-10T19:04:16.963Z,25.20
2022-11-10T19:07:03.379Z,28.07
2022-11-10T19:09:51.716Z,25.47
2022-11-10T19:12:38.593Z,25.50
2022-11-10T19:15:26.559Z,23.37
2022-11-10T19:18:12.914Z,23.73
2022-11-10T19:20:59.396Z,22.43
2022-11-10T19:23:46.085Z,21.77
2022-11-10T19:26:34.840Z,26.93
2022-11-10T19:29:22.417Z,24.47
2022-11-10T19:32:09.354Z,25.43
2022-11-10T19:34:55.831Z,27.97
2022-11-10T19:37:42.217Z,27.40
2022-11-10T19:40:28.790Z,25.50
2022-11-10T19:43:18.633Z,26.73
2022-11-10T19:46:06.702Z,23.30
2022-11-10T19:48:54.478Z,27.43
2022-11-10T19:51:41.489Z,26.40
2022-11-10T19:54:28.128Z,30.80
2022-11-10T19:57:14.633Z,26.70
2022-11-10T20:00:02.355Z,24.63
2022-11-10T20:02:48.970Z,26.37
2022-11-10T20:05:35.268Z,26.47
2022-11-10T20:08:21.788Z,25.07
2022-11-10T20:11:10.783Z,24.10
2022-11-10T20:13:59.403Z,28.73
2022-11-10T20:16:47.422Z,26.93
2022-11-10T20:19:41.197Z,25.47
2022-11-10T20:22:28.089Z,29.77
2022-11-10T20:25:14.926Z,28.20
2022-11-10T20:28:03.542Z,27.80
2022-11-10T20:30:49.982Z,23.87
2022-11-10T20:33:39.030Z,30.57
2022-11-10T20:36:33.965Z,28.23
2022-11-10T20:39:20.746Z,30.17
2022-11-10T20:42:07.244Z,27.20
2022-11-10T20:44:54.024Z,27.57
2022-11-10T20:47:42.687Z,25.63
2022-11-10T20:50:30.594Z,27.47
2022-11-10T20:53:17.111Z,26.10
2022-11-10T20:56:04.635Z,28.10
2022-11-10T20:58:52.370Z,29.73
2022-11-10T21:01:39.356Z,27.30
2022-11-10T21:04:26.230Z,32.27
2022-11-10T21:07:14.190Z,23.67
2022-11-10T21:10:00.826Z,24.73
2022-11-10T21:12:52.966Z,24.03
2022-11-10T21:15:42.604Z,23.70
2022-11-10T21:18:32.181Z,26.80
2022-11-10T21:21:34.080Z,27.73
2022-11-10T21:24:24.098Z,25.60
2022-11-10T21:27:11.604Z,26.70
2022-11-10T21:29:59.699Z,25.03
2022-11-10T21:32:46.803Z,26.00
2022-11-10T21:35:38.137Z,26.07
2022-11-10T21:38:26.458Z,24.80
2022-11-10T21:41:21.326Z,29.60
2022-11-10T21:44:08.053Z,26.40
2022-11-10T21:46:56.905Z,30.23
2022-11-10T21:49:43.291Z,28.03
2022-11-10T21:52:33.717Z,34.13
2022-11-10T21:55:20.281Z,31.30
2022-11-10T21:58:08.817Z,32.60
2022-11-10T22:01:03.392Z,28.50
2022-11-10T22:03:50.806Z,28.07
2022-11-10T22:06:56.073Z,30.07
2022-11-10T22:10:00.783Z,28.73
2022-11-10T22:13:09.104Z,28.33
2022-11-10T22:16:15.747Z,27.40
2022-11-10T22:19:02.879Z,29.87
2022-11-10T22:21:49.937Z,27.83
2022-11-10T22:24:40.528Z,29.60
2022-11-10T22:27:28.782Z,28.57
2022-11-10T22:30:19.815Z,27.43
2022-11-10T22:33:25.021Z,25.87
2022-11-10T22:36:17.180Z,23.67
2022-11-10T22:39:07.842Z,28.07
2022-11-10T22:42:17.136Z,33.90
2022-11-10T22:45:06.292Z,28.93
2022-11-10T22:48:13.432Z,26.63
2022-11-10T22:51:02.596Z,26.60
2022-11-10T22:53:53.121Z,27.20
2022-11-10T22:56:43.452Z,27.30
2022-11-10T22:59:34.855Z,25.13
2022-11-10T23:02:21.813Z,25.07
2022-11-10T23:05:09.925Z,26.47
2022-11-10T23:07:57.910Z,26.87
2022-11-10T23:10:50.484Z,25.23
2022-11-10T23:13:41.768Z,27.13
2022-11-10T23:16:34.039Z,27.30
2022-11-10T23:19:26.968Z,27.90
2022-11-10T23:22:14.741Z,25.67
2022-11-10T23:25:02.571Z,26.57
2022-11-10T23:27:49.864Z,33.40
2022-11-10T23:30:39.944Z,39.63
2022-11-10T23:36:37.900Z,26.10
2022-11-10T23:39:27.022Z,29.03
2022-11-10T23:45:32.863Z,30.07
2022-11-10T23:48:33.855Z,26.13
2022-11-10T23:51:20.752Z,24.80
2022-11-10T23:54:08.323Z,25.03
2022-11-10T23:56:54.793Z,24.83
2022-11-10T23:59:42.860Z,25.63
